Ana Sayfa
METAR-TAF:

METAR-TAF

Havaalanları :

McGregor Executive Airport

Waco, Teksas, Amerika Birleşik Devletleri

Enlem: 31-29N, Boylam: 097-19W, yükseklik: 180 m

Güncel hava durumu gözlemi

Rapor saat 05:56 UTC de 1 saat ve 7 dakika önce yapıldı.
Rüzgar güneydan 10 kt
Sıcaklık 28°C
Nem 66%
Basınç 1014 hPa
Görüş mesafesi: 16.1 km
Açık gökyüzü

METAR: KPWG 160556Z AUTO 18010KT 10SM CLR 28/21 A2994 RMK AO2 SLP130 T02830211 10367 20283 403830244 53004

Saat: 02:03 (07:03 UTC)


TAF: eksik

4.000'den fazla havaalanı için hava durumu gözlemleri ve tahminleri (METAR ve TAF raporları).

Kullanılabilir istasyonlar harita üzerinde sarı ve kırmızı noktalarla gösterilir.

İstasyonun adını görmek için fareyi noktanın üzerinde gezdirin.

Sonrasında hava gözlem ve tahminlerini görmek için tıklayın.

Haritayı değiştirmek için: yaklaştırmak için siyah artı işaretli yeşil düğmeye ve uzaklaştırmak için de eksi işaretli düğmeye hızla tıklayın; bitişik haritalar için yeşil okları kullanın.


METAR-TAF: